createdAt,value
2023-04-02T00:00:23.941Z,60.43
2023-04-02T00:04:22.437Z,60.23
2023-04-02T00:07:34.305Z,60.16
2023-04-02T00:10:50.710Z,60.51
2023-04-02T00:13:57.419Z,60.61
2023-04-02T00:17:07.597Z,60.55
2023-04-02T00:20:23.057Z,60.34
2023-04-02T00:23:29.666Z,60.23
2023-04-02T00:26:41.573Z,60.44
2023-04-02T00:29:53.052Z,60.52
2023-04-02T00:33:00.980Z,60.44
2023-04-02T00:36:12.170Z,60.40
2023-04-02T00:39:27.496Z,60.23
2023-04-02T00:42:34.625Z,60.20
2023-04-02T00:45:51.309Z,60.36
2023-04-02T00:49:08.264Z,60.42
2023-04-02T00:52:25.202Z,60.46
2023-04-02T00:55:41.975Z,60.27
2023-04-02T00:58:54.864Z,60.24
2023-04-02T01:02:22.840Z,60.27
2023-04-02T01:05:29.920Z,60.69
2023-04-02T01:08:59.753Z,60.79
2023-04-02T01:12:47.245Z,60.60
2023-04-02T01:16:07.716Z,60.41
2023-04-02T01:19:52.875Z,60.48
2023-04-02T01:23:10.373Z,60.45
2023-04-02T01:26:48.222Z,60.65
2023-04-02T01:30:05.474Z,60.71
2023-04-02T01:33:12.719Z,60.49
2023-04-02T01:36:34.351Z,60.56
2023-04-02T01:40:17.960Z,60.35
2023-04-02T01:43:40.148Z,60.32
2023-04-02T01:46:52.762Z,60.24
2023-04-02T01:50:06.239Z,59.88
2023-04-02T01:53:18.863Z,59.61
2023-04-02T01:56:26.018Z,59.59
2023-04-02T01:59:36.947Z,59.62
2023-04-02T02:02:54.506Z,59.85
2023-04-02T02:06:04.543Z,59.82
2023-04-02T02:09:21.445Z,60.17
2023-04-02T02:12:28.605Z,60.51
2023-04-02T02:15:39.400Z,60.48
2023-04-02T02:18:54.337Z,60.43
2023-04-02T02:22:12.486Z,60.55
2023-04-02T02:25:24.040Z,60.64
2023-04-02T02:28:36.707Z,60.30
2023-04-02T02:31:48.931Z,60.86
2023-04-02T02:35:11.520Z,60.65
2023-04-02T02:38:54.098Z,60.37
2023-04-02T02:42:27.818Z,60.39
2023-04-02T02:45:42.249Z,60.34
2023-04-02T02:48:49.748Z,60.73
2023-04-02T02:52:09.643Z,60.14
2023-04-02T02:55:32.859Z,60.24
2023-04-02T02:58:47.020Z,59.95
2023-04-02T03:02:09.981Z,59.83
2023-04-02T03:05:22.213Z,59.91
2023-04-02T03:08:40.670Z,60.15
2023-04-02T03:12:03.037Z,60.20
2023-04-02T03:15:26.316Z,60.67
2023-04-02T03:18:49.288Z,60.88
2023-04-02T03:22:08.840Z,60.83
2023-04-02T03:25:37.433Z,61.03
2023-04-02T03:28:53.338Z,60.95
2023-04-02T03:32:10.700Z,60.99
2023-04-02T03:35:31.894Z,61.33
2023-04-02T03:38:48.651Z,61.25
2023-04-02T03:42:08.608Z,60.80
2023-04-02T03:45:25.426Z,61.09
2023-04-02T03:48:44.094Z,60.90
2023-04-02T03:52:03.704Z,60.81
2023-04-02T03:55:20.798Z,60.64
2023-04-02T03:58:44.232Z,60.20
2023-04-02T04:02:01.857Z,60.05
2023-04-02T04:05:29.613Z,59.93
2023-04-02T04:08:51.067Z,59.94
2023-04-02T04:12:14.090Z,59.41
2023-04-02T04:15:32.142Z,59.78
2023-04-02T04:18:53.113Z,60.12
2023-04-02T04:22:14.468Z,60.22
2023-04-02T04:25:30.108Z,60.71
2023-04-02T04:29:00.770Z,60.37
2023-04-02T04:32:32.313Z,60.59
2023-04-02T04:35:54.650Z,60.43
2023-04-02T04:39:14.796Z,60.75
2023-04-02T04:42:33.111Z,60.27
2023-04-02T04:45:51.845Z,60.55
2023-04-02T04:49:14.342Z,61.02
2023-04-02T04:52:28.955Z,61.14
2023-04-02T04:55:43.267Z,60.95
2023-04-02T04:58:59.713Z,61.08
2023-04-02T05:02:17.707Z,61.15
2023-04-02T05:05:34.374Z,61.33
2023-04-02T05:08:52.197Z,61.19
2023-04-02T05:12:15.164Z,60.91
2023-04-02T05:15:32.823Z,61.03
2023-04-02T05:18:50.746Z,60.84
2023-04-02T05:22:15.826Z,61.01
2023-04-02T05:25:31.460Z,61.22
2023-04-02T05:28:52.026Z,61.69
2023-04-02T05:32:09.788Z,61.46
2023-04-02T05:35:23.929Z,60.99
2023-04-02T05:38:39.953Z,60.84
2023-04-02T05:41:49.588Z,60.67
2023-04-02T05:45:26.183Z,60.72
2023-04-02T05:48:43.562Z,61.49
2023-04-02T05:52:01.881Z,61.13
2023-04-02T05:55:39.349Z,60.57
2023-04-02T05:58:54.254Z,60.32
2023-04-02T06:02:23.430Z,60.53
2023-04-02T06:05:41.057Z,60.40
2023-04-02T06:09:01.096Z,59.76
2023-04-02T06:12:26.508Z,59.93
2023-04-02T06:15:36.672Z,60.32
2023-04-02T06:18:49.945Z,60.28
2023-04-02T06:22:11.518Z,60.25
2023-04-02T06:25:28.723Z,60.48
2023-04-02T06:28:49.304Z,59.72
2023-04-02T06:32:02.917Z,60.36
2023-04-02T06:35:16.115Z,61.28
2023-04-02T06:38:34.160Z,61.07
2023-04-02T06:41:40.911Z,61.65
2023-04-02T06:45:17.408Z,61.85
2023-04-02T06:48:37.362Z,62.00
2023-04-02T06:51:48.644Z,62.19
2023-04-02T06:54:54.670Z,61.98
2023-04-02T06:58:01.959Z,61.89
2023-04-02T07:01:18.140Z,61.08
2023-04-02T07:04:26.605Z,61.77
2023-04-02T07:07:33.818Z,61.50
2023-04-02T07:10:43.238Z,61.18
2023-04-02T07:13:50.452Z,61.25
2023-04-02T07:17:00.462Z,60.70
2023-04-02T07:20:07.089Z,59.89
2023-04-02T07:23:16.962Z,60.41
2023-04-02T07:26:28.570Z,59.86
2023-04-02T07:29:35.170Z,59.68
2023-04-02T07:32:43.679Z,60.35
2023-04-02T07:35:56.287Z,59.98
2023-04-02T07:39:02.244Z,59.99
2023-04-02T07:42:09.038Z,60.00
2023-04-02T07:45:15.920Z,58.77
2023-04-02T07:48:25.246Z,59.88
2023-04-02T07:51:31.151Z,60.17
2023-04-02T07:54:38.671Z,58.92
2023-04-02T07:57:53.554Z,60.05
2023-04-02T08:01:00.545Z,60.34
2023-04-02T08:04:10.181Z,60.51
2023-04-02T08:07:17.211Z,60.52
2023-04-02T08:10:23.451Z,60.39
2023-04-02T08:13:30.181Z,60.59
2023-04-02T08:16:49.153Z,60.85
2023-04-02T08:20:01.467Z,60.08
2023-04-02T08:23:08.904Z,59.05
2023-04-02T08:26:22.251Z,60.11
2023-04-02T08:29:32.365Z,60.67
2023-04-02T08:32:41.326Z,60.88
2023-04-02T08:35:50.866Z,60.09
2023-04-02T08:38:57.666Z,60.48
2023-04-02T08:42:21.282Z,59.76
2023-04-02T08:45:50.392Z,58.97
2023-04-02T08:49:04.091Z,57.45
2023-04-02T08:52:28.075Z,57.13
2023-04-02T08:55:48.007Z,56.82
2023-04-02T08:59:00.824Z,57.47
2023-04-02T09:02:32.070Z,57.38
2023-04-02T09:05:46.124Z,57.37
2023-04-02T09:09:00.528Z,56.77
2023-04-02T09:12:10.212Z,56.86
2023-04-02T09:15:32.045Z,56.49
2023-04-02T09:18:41.821Z,56.68
2023-04-02T09:22:09.241Z,56.28
2023-04-02T09:25:22.901Z,57.43
2023-04-02T09:28:30.456Z,57.91
2023-04-02T09:31:45.277Z,58.06
2023-04-02T09:34:51.319Z,57.63
2023-04-02T09:38:24.666Z,58.35
2023-04-02T09:41:37.796Z,58.73
2023-04-02T09:44:44.601Z,59.20
2023-04-02T09:47:52.061Z,59.95
2023-04-02T09:51:17.656Z,59.06
2023-04-02T09:54:23.536Z,59.50
2023-04-02T09:57:33.722Z,60.21
2023-04-02T10:00:42.195Z,60.03
2023-04-02T10:03:49.282Z,59.91
2023-04-02T10:06:58.212Z,59.12
2023-04-02T10:10:21.585Z,59.12
2023-04-02T10:13:36.725Z,59.36
2023-04-02T10:16:51.348Z,58.90
2023-04-02T10:20:06.603Z,59.89
2023-04-02T10:23:20.351Z,60.81
2023-04-02T10:26:51.399Z,61.33
2023-04-02T10:30:19.406Z,61.55
2023-04-02T10:33:36.124Z,60.62
2023-04-02T10:36:58.305Z,61.40
2023-04-02T10:40:17.295Z,61.28
2023-04-02T10:44:20.242Z,61.73
2023-04-02T10:47:45.443Z,61.01
2023-04-02T10:51:03.356Z,59.67
2023-04-02T10:54:37.327Z,59.69
2023-04-02T10:57:46.513Z,60.72
2023-04-02T11:01:01.650Z,61.83
2023-04-02T11:04:25.203Z,62.03
2023-04-02T11:07:41.931Z,61.40
2023-04-02T11:10:56.247Z,61.60
2023-04-02T11:14:09.781Z,60.75
2023-04-02T11:17:20.964Z,60.79
2023-04-02T11:21:31.801Z,61.59
2023-04-02T11:24:48.630Z,62.48
2023-04-02T11:27:55.693Z,62.24
2023-04-02T11:31:03.330Z,61.75
2023-04-02T11:34:09.634Z,60.85
2023-04-02T11:37:38.544Z,61.37
2023-04-02T11:40:54.992Z,60.76
2023-04-02T11:44:05.742Z,60.48
2023-04-02T11:47:26.619Z,60.46
2023-04-02T11:50:36.290Z,61.35
2023-04-02T11:53:46.578Z,60.36
2023-04-02T11:57:08.232Z,59.98
2023-04-02T12:00:53.289Z,60.16
2023-04-02T12:04:53.240Z,60.78
2023-04-02T12:08:27.678Z,60.66
2023-04-02T12:11:41.761Z,60.81
2023-04-02T12:14:51.505Z,61.82
2023-04-02T12:18:15.836Z,60.91
2023-04-02T12:21:29.889Z,61.53
2023-04-02T12:24:36.896Z,60.88
2023-04-02T12:27:46.729Z,61.56
2023-04-02T12:31:06.170Z,60.96
2023-04-02T12:34:19.862Z,60.58
2023-04-02T12:37:30.932Z,60.61
2023-04-02T12:40:37.170Z,61.16
2023-04-02T12:43:46.616Z,60.47
2023-04-02T12:46:55.727Z,60.47
2023-04-02T12:50:06.073Z,61.67
2023-04-02T12:53:27.335Z,61.48
2023-04-02T12:56:34.201Z,61.43
2023-04-02T12:59:46.688Z,61.48
2023-04-02T13:02:55.910Z,62.46
2023-04-02T13:06:02.357Z,62.28
2023-04-02T13:09:29.701Z,62.00
2023-04-02T13:12:39.982Z,61.24
2023-04-02T13:16:03.064Z,61.45
2023-04-02T13:19:33.839Z,60.65
2023-04-02T13:22:40.590Z,60.00
2023-04-02T13:25:46.572Z,60.50
2023-04-02T13:29:04.123Z,60.69
2023-04-02T13:32:16.472Z,60.81
2023-04-02T13:35:23.209Z,59.99
2023-04-02T13:38:29.181Z,59.27
2023-04-02T13:41:44.349Z,60.19
2023-04-02T13:44:50.337Z,60.39
2023-04-02T13:48:01.442Z,60.06
2023-04-02T13:51:07.516Z,60.10
2023-04-02T13:54:23.998Z,59.70
2023-04-02T13:57:29.944Z,59.23
2023-04-02T14:00:41.289Z,58.95
2023-04-02T14:03:50.425Z,58.52
2023-04-02T14:07:37.189Z,58.11
2023-04-02T14:11:05.989Z,57.28
2023-04-02T14:14:48.835Z,58.22
2023-04-02T14:18:18.406Z,57.37
2023-04-02T14:21:47.773Z,58.28
2023-04-02T14:25:10.027Z,57.60
2023-04-02T14:28:38.333Z,57.66
2023-04-02T14:31:55.813Z,58.19
2023-04-02T14:35:17.209Z,56.66
2023-04-02T14:38:42.306Z,57.48
2023-04-02T14:42:02.629Z,57.64
2023-04-02T14:45:21.102Z,57.62
2023-04-02T14:48:51.486Z,57.92
2023-04-02T14:52:06.983Z,58.87
2023-04-02T14:55:34.291Z,58.71
2023-04-02T14:58:48.834Z,59.08
2023-04-02T15:02:04.683Z,57.97
2023-04-02T15:05:23.236Z,57.56
2023-04-02T15:08:36.395Z,58.19
2023-04-02T15:11:54.362Z,58.09
2023-04-02T15:15:24.333Z,57.64
2023-04-02T15:18:35.776Z,58.64
2023-04-02T15:22:09.274Z,58.18
2023-04-02T15:25:32.682Z,58.69
2023-04-02T15:28:52.120Z,58.22
2023-04-02T15:32:15.372Z,58.80
2023-04-02T15:35:39.050Z,58.52
2023-04-02T15:38:50.673Z,58.60
2023-04-02T15:42:16.433Z,58.21
2023-04-02T15:45:43.896Z,56.77
2023-04-02T15:49:20.438Z,57.15
2023-04-02T15:52:39.510Z,57.00
2023-04-02T15:55:57.594Z,56.75
2023-04-02T15:59:42.656Z,56.52
2023-04-02T16:03:23.228Z,57.50
2023-04-02T16:06:48.336Z,57.47
2023-04-02T16:10:15.779Z,57.60
2023-04-02T16:13:32.855Z,58.03
2023-04-02T16:16:43.285Z,57.28
2023-04-02T16:20:00.015Z,57.57
2023-04-02T16:23:16.156Z,57.48
2023-04-02T16:26:52.444Z,57.19
2023-04-02T16:30:39.845Z,57.22
2023-04-02T16:34:07.360Z,57.60
2023-04-02T16:37:31.862Z,57.60
2023-04-02T16:41:00.541Z,57.55
2023-04-02T16:44:35.371Z,58.01
2023-04-02T16:48:06.234Z,57.30
2023-04-02T16:51:24.259Z,58.02
2023-04-02T16:54:47.833Z,57.83
2023-04-02T16:58:17.355Z,57.93
2023-04-02T17:01:43.462Z,58.03
2023-04-02T17:05:08.081Z,58.53
2023-04-02T17:08:26.192Z,58.88
2023-04-02T17:11:47.731Z,60.00
2023-04-02T17:15:03.241Z,60.13
2023-04-02T17:18:21.162Z,60.53
2023-04-02T17:21:30.655Z,59.99
2023-04-02T17:24:47.443Z,60.91
2023-04-02T17:27:59.435Z,61.08
2023-04-02T17:31:16.692Z,61.75
2023-04-02T17:34:25.931Z,61.46
2023-04-02T17:37:46.147Z,61.16
2023-04-02T17:41:08.334Z,61.12
2023-04-02T17:44:59.315Z,62.10
2023-04-02T17:48:18.341Z,62.21
2023-04-02T17:51:38.509Z,62.61
2023-04-02T17:55:00.841Z,62.78
2023-04-02T17:58:31.657Z,63.42
2023-04-02T18:01:57.572Z,63.64
2023-04-02T18:05:25.265Z,63.35
2023-04-02T18:08:52.267Z,62.77
2023-04-02T18:12:24.124Z,63.10
2023-04-02T18:16:05.085Z,62.99
2023-04-02T18:19:20.693Z,63.08
2023-04-02T18:22:41.296Z,63.17
2023-04-02T18:26:05.683Z,62.56
2023-04-02T18:29:33.227Z,63.07
2023-04-02T18:33:07.626Z,61.70
2023-04-02T18:36:31.407Z,62.19
2023-04-02T18:40:01.792Z,62.79
2023-04-02T18:43:29.338Z,62.40
2023-04-02T18:46:52.390Z,62.37
2023-04-02T18:50:19.368Z,61.47
2023-04-02T18:53:32.392Z,62.93
2023-04-02T18:56:43.465Z,61.75
2023-04-02T19:00:00.597Z,61.29
2023-04-02T19:03:21.763Z,61.66
2023-04-02T19:06:40.101Z,61.50
2023-04-02T19:09:56.134Z,62.40
2023-04-02T19:13:03.419Z,62.43
2023-04-02T19:16:51.101Z,62.11
2023-04-02T19:20:15.556Z,62.21
2023-04-02T19:23:47.401Z,61.14
2023-04-02T19:27:09.846Z,61.74
2023-04-02T19:30:42.114Z,61.30
2023-04-02T19:33:58.480Z,61.02
2023-04-02T19:37:18.249Z,61.25
2023-04-02T19:40:45.974Z,60.73
2023-04-02T19:43:55.395Z,60.64
2023-04-02T19:47:03.097Z,61.08
2023-04-02T19:50:11.732Z,60.99
2023-04-02T19:53:20.133Z,61.02
2023-04-02T19:56:27.157Z,61.21
2023-04-02T19:59:37.226Z,60.63
2023-04-02T20:02:43.072Z,61.13
2023-04-02T20:05:50.100Z,61.62
2023-04-02T20:08:56.476Z,61.66
2023-04-02T20:12:03.657Z,61.05
2023-04-02T20:15:14.311Z,60.13
2023-04-02T20:18:21.811Z,59.53
2023-04-02T20:21:27.885Z,59.68
2023-04-02T20:24:37.921Z,58.92
2023-04-02T20:27:48.195Z,59.64
2023-04-02T20:31:09.832Z,59.47
2023-04-02T20:34:16.849Z,59.77
2023-04-02T20:37:24.711Z,59.22
2023-04-02T20:40:33.285Z,59.85
2023-04-02T20:43:43.582Z,60.14
2023-04-02T20:46:53.498Z,60.05
2023-04-02T20:50:02.639Z,59.75
2023-04-02T20:53:09.157Z,59.78
2023-04-02T20:56:23.554Z,59.57
2023-04-02T20:59:30.117Z,59.95
2023-04-02T21:02:40.214Z,59.69
2023-04-02T21:05:47.762Z,60.04
2023-04-02T21:08:56.073Z,59.45
2023-04-02T21:12:01.900Z,58.96
2023-04-02T21:15:12.640Z,59.23
2023-04-02T21:18:21.604Z,59.56
2023-04-02T21:21:29.076Z,59.53
2023-04-02T21:24:35.702Z,59.28
2023-04-02T21:27:42.720Z,59.23
2023-04-02T21:30:49.541Z,58.65
2023-04-02T21:34:02.934Z,58.30
2023-04-02T21:37:08.815Z,58.39
2023-04-02T21:40:15.604Z,58.11
2023-04-02T21:43:21.626Z,58.04
2023-04-02T21:46:32.464Z,58.57
2023-04-02T21:49:41.079Z,58.45
2023-04-02T21:52:47.740Z,58.13
2023-04-02T21:55:53.751Z,57.93
2023-04-02T21:59:02.454Z,58.20
2023-04-02T22:02:08.355Z,58.19
2023-04-02T22:05:18.253Z,58.06
2023-04-02T22:08:25.860Z,57.72
2023-04-02T22:11:37.506Z,58.71
2023-04-02T22:14:43.297Z,58.40
2023-04-02T22:17:50.196Z,58.38
2023-04-02T22:21:01.988Z,58.37
2023-04-02T22:24:14.377Z,57.79
2023-04-02T22:27:20.307Z,58.43
2023-04-02T22:30:30.156Z,58.03
2023-04-02T22:33:37.363Z,57.83
2023-04-02T22:36:46.721Z,57.73
2023-04-02T22:39:52.582Z,57.94
2023-04-02T22:43:00.292Z,58.04
2023-04-02T22:46:06.816Z,57.58
2023-04-02T22:49:19.552Z,57.65
2023-04-02T22:52:28.214Z,57.70
2023-04-02T22:55:34.996Z,57.83
2023-04-02T22:58:41.896Z,58.53
2023-04-02T23:01:48.588Z,57.81
2023-04-02T23:04:54.502Z,58.12
2023-04-02T23:08:03.863Z,58.84
2023-04-02T23:11:12.879Z,58.34
2023-04-02T23:14:19.607Z,59.18
2023-04-02T23:17:25.675Z,58.81
2023-04-02T23:20:32.486Z,58.07
2023-04-02T23:23:41.173Z,58.25
2023-04-02T23:26:48.093Z,58.57
2023-04-02T23:29:54.965Z,58.70
2023-04-02T23:33:03.461Z,58.75
2023-04-02T23:36:12.103Z,57.91
2023-04-02T23:39:23.252Z,58.57
2023-04-02T23:42:29.092Z,58.21
2023-04-02T23:45:35.877Z,58.90
2023-04-02T23:48:42.613Z,57.14
2023-04-02T23:51:49.629Z,57.37
2023-04-02T23:54:58.075Z,57.45
2023-04-02T23:58:04.858Z,57.08
